sensor_id;sensor_type;location;lat;lon;timestamp;P1;durP1;ratioP1;P2;durP2;ratioP2
51981;SDS011;37998;53.416;6.730;2023-03-24T00:01:03;9.65;;;5.97;;
51981;SDS011;37998;53.416;6.730;2023-03-24T00:03:30;13.98;;;6.43;;
51981;SDS011;37998;53.416;6.730;2023-03-24T00:05:57;12.57;;;6.28;;
51981;SDS011;37998;53.416;6.730;2023-03-24T00:08:29;15.40;;;6.28;;
51981;SDS011;37998;53.416;6.730;2023-03-24T00:11:03;13.32;;;6.20;;
51981;SDS011;37998;53.416;6.730;2023-03-24T00:13:33;9.98;;;6.00;;
51981;SDS011;37998;53.416;6.730;2023-03-24T00:16:03;11.45;;;5.80;;
51981;SDS011;37998;53.416;6.730;2023-03-24T00:18:34;10.75;;;5.90;;
51981;SDS011;37998;53.416;6.730;2023-03-24T00:21:02;13.23;;;6.03;;
51981;SDS011;37998;53.416;6.730;2023-03-24T00:23:29;9.25;;;5.38;;
51981;SDS011;37998;53.416;6.730;2023-03-24T00:26:03;8.27;;;5.05;;
51981;SDS011;37998;53.416;6.730;2023-03-24T00:28:39;9.45;;;5.78;;
51981;SDS011;37998;53.416;6.730;2023-03-24T00:31:10;11.32;;;5.20;;
51981;SDS011;37998;53.416;6.730;2023-03-24T00:33:38;13.35;;;5.35;;
51981;SDS011;37998;53.416;6.730;2023-03-24T00:36:05;11.40;;;6.00;;
51981;SDS011;37998;53.416;6.730;2023-03-24T00:38:36;10.43;;;5.50;;
51981;SDS011;37998;53.416;6.730;2023-03-24T00:41:03;9.23;;;5.75;;
51981;SDS011;37998;53.416;6.730;2023-03-24T00:43:30;10.80;;;6.15;;
51981;SDS011;37998;53.416;6.730;2023-03-24T00:45:57;8.88;;;5.38;;
51981;SDS011;37998;53.416;6.730;2023-03-24T00:48:28;9.82;;;5.30;;
51981;SDS011;37998;53.416;6.730;2023-03-24T00:50:54;10.25;;;4.90;;
51981;SDS011;37998;53.416;6.730;2023-03-24T00:53:20;13.43;;;5.60;;
51981;SDS011;37998;53.416;6.730;2023-03-24T00:55:47;9.63;;;5.20;;
51981;SDS011;37998;53.416;6.730;2023-03-24T00:58:17;12.25;;;5.70;;
51981;SDS011;37998;53.416;6.730;2023-03-24T01:00:47;6.82;;;5.35;;
51981;SDS011;37998;53.416;6.730;2023-03-24T01:03:15;10.30;;;5.63;;
51981;SDS011;37998;53.416;6.730;2023-03-24T01:05:41;11.90;;;6.20;;
51981;SDS011;37998;53.416;6.730;2023-03-24T01:08:13;9.70;;;5.28;;
51981;SDS011;37998;53.416;6.730;2023-03-24T01:10:40;13.38;;;5.95;;
51981;SDS011;37998;53.416;6.730;2023-03-24T01:13:15;9.02;;;5.03;;
51981;SDS011;37998;53.416;6.730;2023-03-24T01:15:41;10.13;;;5.78;;
51981;SDS011;37998;53.416;6.730;2023-03-24T01:18:09;7.85;;;4.65;;
51981;SDS011;37998;53.416;6.730;2023-03-24T01:20:37;10.35;;;5.18;;
51981;SDS011;37998;53.416;6.730;2023-03-24T01:23:06;8.45;;;5.00;;
51981;SDS011;37998;53.416;6.730;2023-03-24T01:25:32;7.07;;;4.75;;
51981;SDS011;37998;53.416;6.730;2023-03-24T01:28:02;9.30;;;5.05;;
51981;SDS011;37998;53.416;6.730;2023-03-24T01:30:28;8.38;;;5.28;;
51981;SDS011;37998;53.416;6.730;2023-03-24T01:32:55;8.10;;;5.03;;
51981;SDS011;37998;53.416;6.730;2023-03-24T01:35:22;10.80;;;5.72;;
51981;SDS011;37998;53.416;6.730;2023-03-24T01:37:50;8.23;;;4.88;;
51981;SDS011;37998;53.416;6.730;2023-03-24T01:40:17;8.38;;;5.03;;
51981;SDS011;37998;53.416;6.730;2023-03-24T01:42:48;9.25;;;5.05;;
51981;SDS011;37998;53.416;6.730;2023-03-24T01:48:02;8.00;;;4.20;;
51981;SDS011;37998;53.416;6.730;2023-03-24T01:50:29;11.60;;;4.78;;
51981;SDS011;37998;53.416;6.730;2023-03-24T01:52:56;10.75;;;5.05;;
51981;SDS011;37998;53.416;6.730;2023-03-24T01:55:22;6.40;;;4.40;;
51981;SDS011;37998;53.416;6.730;2023-03-24T01:57:50;8.23;;;5.15;;
51981;SDS011;37998;53.416;6.730;2023-03-24T02:00:19;9.15;;;4.30;;
51981;SDS011;37998;53.416;6.730;2023-03-24T02:02:49;9.07;;;5.25;;
51981;SDS011;37998;53.416;6.730;2023-03-24T02:05:31;9.93;;;4.35;;
51981;SDS011;37998;53.416;6.730;2023-03-24T02:08:01;7.57;;;4.30;;
51981;SDS011;37998;53.416;6.730;2023-03-24T02:10:33;6.93;;;4.30;;
51981;SDS011;37998;53.416;6.730;2023-03-24T02:13:00;5.63;;;4.35;;
51981;SDS011;37998;53.416;6.730;2023-03-24T02:15:27;6.65;;;4.50;;
51981;SDS011;37998;53.416;6.730;2023-03-24T02:48:30;9.70;;;4.82;;
51981;SDS011;37998;53.416;6.730;2023-03-24T02:56:42;6.00;;;4.00;;
51981;SDS011;37998;53.416;6.730;2023-03-24T02:59:20;6.30;;;4.40;;
51981;SDS011;37998;53.416;6.730;2023-03-24T03:02:18;5.45;;;4.35;;
51981;SDS011;37998;53.416;6.730;2023-03-24T03:04:52;7.05;;;5.05;;
51981;SDS011;37998;53.416;6.730;2023-03-24T03:07:22;8.90;;;4.78;;
51981;SDS011;37998;53.416;6.730;2023-03-24T03:09:54;7.32;;;4.40;;
51981;SDS011;37998;53.416;6.730;2023-03-24T03:12:31;6.18;;;4.55;;
51981;SDS011;37998;53.416;6.730;2023-03-24T03:15:05;6.00;;;5.15;;
51981;SDS011;37998;53.416;6.730;2023-03-24T03:17:38;7.25;;;4.15;;
51981;SDS011;37998;53.416;6.730;2023-03-24T03:20:13;6.28;;;4.20;;
51981;SDS011;37998;53.416;6.730;2023-03-24T03:22:44;8.70;;;3.92;;
51981;SDS011;37998;53.416;6.730;2023-03-24T03:25:15;6.53;;;4.38;;
51981;SDS011;37998;53.416;6.730;2023-03-24T03:27:47;8.93;;;4.57;;
51981;SDS011;37998;53.416;6.730;2023-03-24T03:30:15;6.60;;;4.20;;
51981;SDS011;37998;53.416;6.730;2023-03-24T03:32:58;6.75;;;4.05;;
51981;SDS011;37998;53.416;6.730;2023-03-24T03:35:38;6.30;;;4.32;;
51981;SDS011;37998;53.416;6.730;2023-03-24T03:38:21;6.55;;;3.95;;
51981;SDS011;37998;53.416;6.730;2023-03-24T03:40:56;4.70;;;3.90;;
51981;SDS011;37998;53.416;6.730;2023-03-24T03:43:27;5.60;;;4.15;;
51981;SDS011;37998;53.416;6.730;2023-03-24T03:45:55;5.35;;;4.32;;
51981;SDS011;37998;53.416;6.730;2023-03-24T03:48:22;6.20;;;3.28;;
51981;SDS011;37998;53.416;6.730;2023-03-24T03:50:51;3.97;;;3.05;;
51981;SDS011;37998;53.416;6.730;2023-03-24T03:53:22;6.97;;;3.03;;
51981;SDS011;37998;53.416;6.730;2023-03-24T03:55:52;3.88;;;2.72;;
51981;SDS011;37998;53.416;6.730;2023-03-24T03:58:21;5.78;;;2.60;;
51981;SDS011;37998;53.416;6.730;2023-03-24T04:00:47;6.95;;;2.83;;
51981;SDS011;37998;53.416;6.730;2023-03-24T04:03:31;5.15;;;2.90;;
51981;SDS011;37998;53.416;6.730;2023-03-24T04:20:07;4.07;;;1.83;;
51981;SDS011;37998;53.416;6.730;2023-03-24T04:22:59;5.85;;;2.50;;
51981;SDS011;37998;53.416;6.730;2023-03-24T04:28:29;6.50;;;2.72;;
51981;SDS011;37998;53.416;6.730;2023-03-24T04:33:54;12.65;;;2.65;;
51981;SDS011;37998;53.416;6.730;2023-03-24T04:39:06;10.57;;;2.70;;
51981;SDS011;37998;53.416;6.730;2023-03-24T04:41:37;8.68;;;2.65;;
51981;SDS011;37998;53.416;6.730;2023-03-24T04:44:04;10.40;;;2.63;;
51981;SDS011;37998;53.416;6.730;2023-03-24T04:46:30;11.75;;;3.20;;
51981;SDS011;37998;53.416;6.730;2023-03-24T04:48:56;7.28;;;2.30;;
51981;SDS011;37998;53.416;6.730;2023-03-24T04:51:22;7.68;;;2.47;;
51981;SDS011;37998;53.416;6.730;2023-03-24T04:53:48;10.52;;;2.85;;
51981;SDS011;37998;53.416;6.730;2023-03-24T04:56:21;7.32;;;2.55;;
51981;SDS011;37998;53.416;6.730;2023-03-24T04:59:03;13.55;;;2.60;;
51981;SDS011;37998;53.416;6.730;2023-03-24T05:01:31;10.55;;;2.65;;
51981;SDS011;37998;53.416;6.730;2023-03-24T05:04:01;12.38;;;2.72;;
51981;SDS011;37998;53.416;6.730;2023-03-24T05:06:28;7.78;;;2.13;;
51981;SDS011;37998;53.416;6.730;2023-03-24T05:08:54;9.15;;;2.35;;
51981;SDS011;37998;53.416;6.730;2023-03-24T05:11:22;8.93;;;2.92;;
51981;SDS011;37998;53.416;6.730;2023-03-24T05:13:48;13.82;;;3.38;;
51981;SDS011;37998;53.416;6.730;2023-03-24T05:16:15;12.20;;;3.63;;
51981;SDS011;37998;53.416;6.730;2023-03-24T05:18:40;11.23;;;3.58;;
51981;SDS011;37998;53.416;6.730;2023-03-24T05:21:06;11.32;;;2.78;;
51981;SDS011;37998;53.416;6.730;2023-03-24T05:23:32;10.95;;;3.42;;
51981;SDS011;37998;53.416;6.730;2023-03-24T05:25:57;13.50;;;3.90;;
51981;SDS011;37998;53.416;6.730;2023-03-24T05:28:23;13.82;;;2.83;;
51981;SDS011;37998;53.416;6.730;2023-03-24T05:30:49;14.30;;;3.60;;
51981;SDS011;37998;53.416;6.730;2023-03-24T05:33:15;11.77;;;2.78;;
51981;SDS011;37998;53.416;6.730;2023-03-24T05:35:41;11.27;;;2.97;;
51981;SDS011;37998;53.416;6.730;2023-03-24T05:38:07;14.38;;;2.83;;
51981;SDS011;37998;53.416;6.730;2023-03-24T05:40:32;12.85;;;2.95;;
51981;SDS011;37998;53.416;6.730;2023-03-24T05:42:58;11.07;;;3.10;;
51981;SDS011;37998;53.416;6.730;2023-03-24T05:45:24;14.70;;;3.33;;
51981;SDS011;37998;53.416;6.730;2023-03-24T05:47:49;12.73;;;3.72;;
51981;SDS011;37998;53.416;6.730;2023-03-24T05:50:15;16.38;;;3.80;;
51981;SDS011;37998;53.416;6.730;2023-03-24T05:52:41;11.80;;;3.53;;
51981;SDS011;37998;53.416;6.730;2023-03-24T05:55:07;11.30;;;3.20;;
51981;SDS011;37998;53.416;6.730;2023-03-24T05:57:35;11.23;;;4.00;;
51981;SDS011;37998;53.416;6.730;2023-03-24T06:00:01;11.15;;;3.83;;
51981;SDS011;37998;53.416;6.730;2023-03-24T06:02:31;10.68;;;3.40;;
51981;SDS011;37998;53.416;6.730;2023-03-24T06:04:58;12.75;;;3.40;;
51981;SDS011;37998;53.416;6.730;2023-03-24T06:07:25;15.63;;;3.03;;
51981;SDS011;37998;53.416;6.730;2023-03-24T06:09:55;16.75;;;3.92;;
51981;SDS011;37998;53.416;6.730;2023-03-24T06:12:22;13.45;;;4.10;;
51981;SDS011;37998;53.416;6.730;2023-03-24T06:14:48;15.10;;;4.45;;
51981;SDS011;37998;53.416;6.730;2023-03-24T06:17:14;17.98;;;4.03;;
51981;SDS011;37998;53.416;6.730;2023-03-24T06:19:40;15.40;;;3.75;;
51981;SDS011;37998;53.416;6.730;2023-03-24T06:22:12;15.70;;;3.90;;
51981;SDS011;37998;53.416;6.730;2023-03-24T06:24:38;12.82;;;4.40;;
51981;SDS011;37998;53.416;6.730;2023-03-24T06:27:04;15.00;;;3.40;;
51981;SDS011;37998;53.416;6.730;2023-03-24T06:29:32;18.67;;;3.95;;
51981;SDS011;37998;53.416;6.730;2023-03-24T06:31:59;17.25;;;3.95;;
51981;SDS011;37998;53.416;6.730;2023-03-24T06:34:25;15.52;;;3.80;;
51981;SDS011;37998;53.416;6.730;2023-03-24T06:36:53;16.92;;;3.78;;
51981;SDS011;37998;53.416;6.730;2023-03-24T06:39:19;14.98;;;3.53;;
51981;SDS011;37998;53.416;6.730;2023-03-24T06:41:45;10.25;;;3.30;;
51981;SDS011;37998;53.416;6.730;2023-03-24T06:44:11;13.25;;;3.60;;
51981;SDS011;37998;53.416;6.730;2023-03-24T06:46:37;11.77;;;3.08;;
51981;SDS011;37998;53.416;6.730;2023-03-24T06:49:04;12.85;;;3.80;;
51981;SDS011;37998;53.416;6.730;2023-03-24T06:51:30;11.77;;;3.80;;
51981;SDS011;37998;53.416;6.730;2023-03-24T06:53:56;13.20;;;3.72;;
51981;SDS011;37998;53.416;6.730;2023-03-24T06:56:22;14.90;;;3.90;;
51981;SDS011;37998;53.416;6.730;2023-03-24T06:58:47;12.63;;;3.60;;
51981;SDS011;37998;53.416;6.730;2023-03-24T07:01:13;14.48;;;3.45;;
51981;SDS011;37998;53.416;6.730;2023-03-24T07:03:39;16.48;;;3.83;;
51981;SDS011;37998;53.416;6.730;2023-03-24T07:06:06;13.88;;;3.95;;
51981;SDS011;37998;53.416;6.730;2023-03-24T07:08:33;17.00;;;3.58;;
51981;SDS011;37998;53.416;6.730;2023-03-24T07:10:59;13.30;;;3.67;;
51981;SDS011;37998;53.416;6.730;2023-03-24T07:13:26;11.63;;;3.35;;
51981;SDS011;37998;53.416;6.730;2023-03-24T07:15:52;14.15;;;4.30;;
51981;SDS011;37998;53.416;6.730;2023-03-24T07:18:18;12.23;;;3.85;;
51981;SDS011;37998;53.416;6.730;2023-03-24T07:20:43;16.77;;;3.67;;
51981;SDS011;37998;53.416;6.730;2023-03-24T07:23:10;16.35;;;3.80;;
51981;SDS011;37998;53.416;6.730;2023-03-24T07:25:38;13.02;;;3.60;;
51981;SDS011;37998;53.416;6.730;2023-03-24T07:28:04;12.27;;;3.55;;
51981;SDS011;37998;53.416;6.730;2023-03-24T07:30:32;15.85;;;4.47;;
51981;SDS011;37998;53.416;6.730;2023-03-24T07:33:00;15.98;;;3.28;;
51981;SDS011;37998;53.416;6.730;2023-03-24T07:35:27;11.15;;;3.55;;
51981;SDS011;37998;53.416;6.730;2023-03-24T07:37:57;17.52;;;3.70;;
51981;SDS011;37998;53.416;6.730;2023-03-24T07:40:23;16.48;;;3.63;;
51981;SDS011;37998;53.416;6.730;2023-03-24T07:42:49;15.20;;;4.05;;
51981;SDS011;37998;53.416;6.730;2023-03-24T07:45:15;16.52;;;3.97;;
51981;SDS011;37998;53.416;6.730;2023-03-24T07:47:42;13.43;;;3.63;;
51981;SDS011;37998;53.416;6.730;2023-03-24T07:50:09;13.90;;;3.80;;
51981;SDS011;37998;53.416;6.730;2023-03-24T07:52:39;17.45;;;3.33;;
51981;SDS011;37998;53.416;6.730;2023-03-24T07:55:07;19.02;;;3.70;;
51981;SDS011;37998;53.416;6.730;2023-03-24T07:57:36;21.33;;;4.20;;
51981;SDS011;37998;53.416;6.730;2023-03-24T08:00:03;17.23;;;4.75;;
51981;SDS011;37998;53.416;6.730;2023-03-24T08:02:46;15.32;;;3.75;;
51981;SDS011;37998;53.416;6.730;2023-03-24T08:05:14;16.52;;;4.60;;
51981;SDS011;37998;53.416;6.730;2023-03-24T08:07:40;17.15;;;4.40;;
51981;SDS011;37998;53.416;6.730;2023-03-24T08:10:13;13.48;;;4.50;;
51981;SDS011;37998;53.416;6.730;2023-03-24T08:12:41;16.95;;;3.47;;
51981;SDS011;37998;53.416;6.730;2023-03-24T08:15:07;20.35;;;4.22;;
51981;SDS011;37998;53.416;6.730;2023-03-24T08:17:34;20.92;;;4.28;;
51981;SDS011;37998;53.416;6.730;2023-03-24T08:20:00;16.85;;;4.10;;
51981;SDS011;37998;53.416;6.730;2023-03-24T08:22:37;20.75;;;4.50;;
51981;SDS011;37998;53.416;6.730;2023-03-24T08:25:04;18.67;;;4.25;;
51981;SDS011;37998;53.416;6.730;2023-03-24T08:27:30;19.40;;;4.10;;
51981;SDS011;37998;53.416;6.730;2023-03-24T08:29:56;18.45;;;5.05;;
51981;SDS011;37998;53.416;6.730;2023-03-24T08:32:22;18.90;;;4.47;;
51981;SDS011;37998;53.416;6.730;2023-03-24T08:34:48;22.17;;;4.55;;
51981;SDS011;37998;53.416;6.730;2023-03-24T08:37:14;14.50;;;3.58;;
51981;SDS011;37998;53.416;6.730;2023-03-24T08:39:39;20.17;;;4.32;;
51981;SDS011;37998;53.416;6.730;2023-03-24T08:42:05;19.65;;;4.15;;
51981;SDS011;37998;53.416;6.730;2023-03-24T08:44:31;17.73;;;3.60;;
51981;SDS011;37998;53.416;6.730;2023-03-24T08:46:56;16.65;;;4.28;;
51981;SDS011;37998;53.416;6.730;2023-03-24T08:49:24;17.70;;;4.25;;
51981;SDS011;37998;53.416;6.730;2023-03-24T08:51:49;16.27;;;4.85;;
51981;SDS011;37998;53.416;6.730;2023-03-24T08:54:15;19.77;;;3.75;;
51981;SDS011;37998;53.416;6.730;2023-03-24T08:56:41;17.50;;;4.47;;
51981;SDS011;37998;53.416;6.730;2023-03-24T08:59:07;21.55;;;4.10;;
51981;SDS011;37998;53.416;6.730;2023-03-24T09:01:33;19.55;;;4.20;;
51981;SDS011;37998;53.416;6.730;2023-03-24T09:03:59;25.88;;;4.43;;
51981;SDS011;37998;53.416;6.730;2023-03-24T09:06:25;27.88;;;4.57;;
51981;SDS011;37998;53.416;6.730;2023-03-24T09:08:51;17.67;;;4.63;;
51981;SDS011;37998;53.416;6.730;2023-03-24T09:11:19;18.58;;;3.95;;
51981;SDS011;37998;53.416;6.730;2023-03-24T09:13:46;19.85;;;4.28;;
51981;SDS011;37998;53.416;6.730;2023-03-24T09:16:12;21.45;;;4.70;;
51981;SDS011;37998;53.416;6.730;2023-03-24T09:18:39;16.20;;;3.55;;
51981;SDS011;37998;53.416;6.730;2023-03-24T09:21:05;16.27;;;4.93;;
51981;SDS011;37998;53.416;6.730;2023-03-24T09:23:31;18.23;;;3.72;;
51981;SDS011;37998;53.416;6.730;2023-03-24T09:25:58;21.80;;;4.30;;
51981;SDS011;37998;53.416;6.730;2023-03-24T09:28:24;23.58;;;4.82;;
51981;SDS011;37998;53.416;6.730;2023-03-24T09:30:54;12.30;;;3.38;;
51981;SDS011;37998;53.416;6.730;2023-03-24T09:33:24;18.45;;;4.20;;
51981;SDS011;37998;53.416;6.730;2023-03-24T09:35:57;18.42;;;4.30;;
51981;SDS011;37998;53.416;6.730;2023-03-24T09:38:24;13.80;;;3.30;;
51981;SDS011;37998;53.416;6.730;2023-03-24T09:40:57;12.40;;;4.03;;
51981;SDS011;37998;53.416;6.730;2023-03-24T09:45:55;21.83;;;4.40;;
51981;SDS011;37998;53.416;6.730;2023-03-24T09:51:08;16.52;;;3.95;;
51981;SDS011;37998;53.416;6.730;2023-03-24T09:53:39;15.30;;;3.90;;
51981;SDS011;37998;53.416;6.730;2023-03-24T09:56:27;13.65;;;4.70;;
51981;SDS011;37998;53.416;6.730;2023-03-24T09:59:04;15.68;;;3.65;;
51981;SDS011;37998;53.416;6.730;2023-03-24T10:01:32;22.83;;;4.45;;
51981;SDS011;37998;53.416;6.730;2023-03-24T10:03:59;17.02;;;4.13;;
51981;SDS011;37998;53.416;6.730;2023-03-24T10:06:30;18.48;;;3.85;;
51981;SDS011;37998;53.416;6.730;2023-03-24T10:11:44;20.65;;;3.92;;
51981;SDS011;37998;53.416;6.730;2023-03-24T10:17:01;20.65;;;4.00;;
51981;SDS011;37998;53.416;6.730;2023-03-24T10:22:31;18.55;;;3.58;;
51981;SDS011;37998;53.416;6.730;2023-03-24T10:25:19;16.08;;;3.45;;
51981;SDS011;37998;53.416;6.730;2023-03-24T10:28:17;14.23;;;4.18;;
51981;SDS011;37998;53.416;6.730;2023-03-24T10:31:04;14.00;;;3.63;;
51981;SDS011;37998;53.416;6.730;2023-03-24T10:33:40;13.50;;;3.38;;
51981;SDS011;37998;53.416;6.730;2023-03-24T10:36:17;10.85;;;3.00;;
51981;SDS011;37998;53.416;6.730;2023-03-24T10:38:44;13.95;;;3.50;;
51981;SDS011;37998;53.416;6.730;2023-03-24T10:43:43;13.95;;;3.65;;
51981;SDS011;37998;53.416;6.730;2023-03-24T10:46:14;12.57;;;3.83;;
51981;SDS011;37998;53.416;6.730;2023-03-24T10:48:49;12.63;;;3.47;;
51981;SDS011;37998;53.416;6.730;2023-03-24T10:51:25;12.52;;;3.65;;
51981;SDS011;37998;53.416;6.730;2023-03-24T10:54:11;15.60;;;3.45;;
51981;SDS011;37998;53.416;6.730;2023-03-24T10:56:44;12.90;;;3.10;;
51981;SDS011;37998;53.416;6.730;2023-03-24T11:02:35;15.70;;;3.83;;
51981;SDS011;37998;53.416;6.730;2023-03-24T11:07:47;23.30;;;3.80;;
51981;SDS011;37998;53.416;6.730;2023-03-24T11:10:18;13.30;;;2.92;;
51981;SDS011;37998;53.416;6.730;2023-03-24T11:15:25;14.98;;;3.60;;
51981;SDS011;37998;53.416;6.730;2023-03-24T11:17:59;13.82;;;3.35;;
51981;SDS011;37998;53.416;6.730;2023-03-24T11:23:18;12.38;;;3.42;;
51981;SDS011;37998;53.416;6.730;2023-03-24T11:25:43;16.67;;;3.67;;
51981;SDS011;37998;53.416;6.730;2023-03-24T11:28:14;13.98;;;3.60;;
51981;SDS011;37998;53.416;6.730;2023-03-24T11:30:48;10.88;;;3.10;;
51981;SDS011;37998;53.416;6.730;2023-03-24T11:33:20;15.50;;;3.60;;
51981;SDS011;37998;53.416;6.730;2023-03-24T11:35:46;14.75;;;3.75;;
51981;SDS011;37998;53.416;6.730;2023-03-24T11:38:14;12.80;;;2.65;;
51981;SDS011;37998;53.416;6.730;2023-03-24T11:40:51;19.85;;;3.08;;
51981;SDS011;37998;53.416;6.730;2023-03-24T11:43:22;10.38;;;3.30;;
51981;SDS011;37998;53.416;6.730;2023-03-24T11:46:07;9.07;;;2.97;;
51981;SDS011;37998;53.416;6.730;2023-03-24T11:48:44;12.88;;;2.83;;
51981;SDS011;37998;53.416;6.730;2023-03-24T11:51:37;12.13;;;2.72;;
51981;SDS011;37998;53.416;6.730;2023-03-24T11:54:13;11.98;;;3.00;;
51981;SDS011;37998;53.416;6.730;2023-03-24T11:56:43;14.20;;;3.75;;
51981;SDS011;37998;53.416;6.730;2023-03-24T11:59:25;15.35;;;3.53;;
51981;SDS011;37998;53.416;6.730;2023-03-24T12:04:40;12.35;;;3.72;;
51981;SDS011;37998;53.416;6.730;2023-03-24T12:26:24;11.80;;;3.08;;
51981;SDS011;37998;53.416;6.730;2023-03-24T12:57:28;15.20;;;2.88;;
51981;SDS011;37998;53.416;6.730;2023-03-24T12:59:59;14.55;;;2.80;;
51981;SDS011;37998;53.416;6.730;2023-03-24T13:02:32;13.23;;;3.55;;
51981;SDS011;37998;53.416;6.730;2023-03-24T13:05:06;11.43;;;3.38;;
51981;SDS011;37998;53.416;6.730;2023-03-24T13:07:42;12.48;;;2.75;;
51981;SDS011;37998;53.416;6.730;2023-03-24T13:10:13;13.48;;;3.13;;
51981;SDS011;37998;53.416;6.730;2023-03-24T13:15:33;12.35;;;2.95;;
51981;SDS011;37998;53.416;6.730;2023-03-24T13:20:50;12.45;;;3.72;;
51981;SDS011;37998;53.416;6.730;2023-03-24T13:31:45;13.93;;;3.30;;
51981;SDS011;37998;53.416;6.730;2023-03-24T13:34:21;12.00;;;3.00;;
51981;SDS011;37998;53.416;6.730;2023-03-24T13:37:08;13.75;;;2.80;;
51981;SDS011;37998;53.416;6.730;2023-03-24T13:39:35;11.43;;;2.42;;
51981;SDS011;37998;53.416;6.730;2023-03-24T13:42:01;8.85;;;3.00;;
51981;SDS011;37998;53.416;6.730;2023-03-24T13:44:40;12.63;;;3.10;;
51981;SDS011;37998;53.416;6.730;2023-03-24T13:47:12;7.00;;;2.75;;
51981;SDS011;37998;53.416;6.730;2023-03-24T13:50:01;9.77;;;2.70;;
51981;SDS011;37998;53.416;6.730;2023-03-24T13:54:57;7.97;;;2.50;;
51981;SDS011;37998;53.416;6.730;2023-03-24T13:57:25;11.15;;;2.72;;
51981;SDS011;37998;53.416;6.730;2023-03-24T13:59:59;13.60;;;3.20;;
51981;SDS011;37998;53.416;6.730;2023-03-24T14:02:45;10.75;;;2.80;;
51981;SDS011;37998;53.416;6.730;2023-03-24T14:13:02;12.88;;;2.97;;
51981;SDS011;37998;53.416;6.730;2023-03-24T14:16:25;13.95;;;3.33;;
51981;SDS011;37998;53.416;6.730;2023-03-24T14:23:22;11.45;;;3.03;;
51981;SDS011;37998;53.416;6.730;2023-03-24T14:26:14;9.20;;;2.65;;
51981;SDS011;37998;53.416;6.730;2023-03-24T14:28:48;16.13;;;3.58;;
51981;SDS011;37998;53.416;6.730;2023-03-24T14:36:25;13.23;;;3.22;;
51981;SDS011;37998;53.416;6.730;2023-03-24T14:39:08;10.02;;;3.03;;
51981;SDS011;37998;53.416;6.730;2023-03-24T14:41:55;11.77;;;3.45;;
51981;SDS011;37998;53.416;6.730;2023-03-24T14:47:17;17.02;;;3.35;;
51981;SDS011;37998;53.416;6.730;2023-03-24T14:49:45;17.63;;;3.80;;
51981;SDS011;37998;53.416;6.730;2023-03-24T14:52:17;14.05;;;3.38;;
51981;SDS011;37998;53.416;6.730;2023-03-24T14:54:57;18.25;;;3.35;;
51981;SDS011;37998;53.416;6.730;2023-03-24T14:57:29;12.48;;;3.42;;
51981;SDS011;37998;53.416;6.730;2023-03-24T15:00:03;15.45;;;3.58;;
51981;SDS011;37998;53.416;6.730;2023-03-24T15:02:51;14.88;;;3.40;;
51981;SDS011;37998;53.416;6.730;2023-03-24T15:10:55;17.88;;;3.33;;
51981;SDS011;37998;53.416;6.730;2023-03-24T15:13:41;15.77;;;3.33;;
51981;SDS011;37998;53.416;6.730;2023-03-24T15:18:48;13.88;;;3.35;;
51981;SDS011;37998;53.416;6.730;2023-03-24T15:21:22;21.42;;;3.80;;
51981;SDS011;37998;53.416;6.730;2023-03-24T15:23:59;17.23;;;3.42;;
51981;SDS011;37998;53.416;6.730;2023-03-24T15:26:26;31.92;;;4.07;;
51981;SDS011;37998;53.416;6.730;2023-03-24T15:28:53;13.93;;;3.47;;
51981;SDS011;37998;53.416;6.730;2023-03-24T15:31:28;13.52;;;3.50;;
51981;SDS011;37998;53.416;6.730;2023-03-24T15:37:04;14.23;;;3.25;;
51981;SDS011;37998;53.416;6.730;2023-03-24T15:39:43;9.73;;;2.53;;
51981;SDS011;37998;53.416;6.730;2023-03-24T15:42:15;12.48;;;2.70;;
51981;SDS011;37998;53.416;6.730;2023-03-24T15:44:44;16.02;;;3.05;;
51981;SDS011;37998;53.416;6.730;2023-03-24T15:47:21;14.30;;;3.60;;
51981;SDS011;37998;53.416;6.730;2023-03-24T15:49:56;11.65;;;3.00;;
51981;SDS011;37998;53.416;6.730;2023-03-24T15:55:44;19.20;;;3.35;;
51981;SDS011;37998;53.416;6.730;2023-03-24T15:57:56;11.00;;;2.83;;
51981;SDS011;37998;53.416;6.730;2023-03-24T16:00:27;12.60;;;3.13;;
51981;SDS011;37998;53.416;6.730;2023-03-24T16:02:55;15.90;;;2.80;;
51981;SDS011;37998;53.416;6.730;2023-03-24T16:05:26;12.25;;;2.88;;
51981;SDS011;37998;53.416;6.730;2023-03-24T16:08:00;9.60;;;2.90;;
51981;SDS011;37998;53.416;6.730;2023-03-24T16:10:55;10.70;;;2.58;;
51981;SDS011;37998;53.416;6.730;2023-03-24T16:13:27;15.98;;;3.47;;
51981;SDS011;37998;53.416;6.730;2023-03-24T16:16:00;12.98;;;3.20;;
51981;SDS011;37998;53.416;6.730;2023-03-24T16:18:34;14.52;;;3.08;;
51981;SDS011;37998;53.416;6.730;2023-03-24T16:21:08;17.52;;;3.22;;
51981;SDS011;37998;53.416;6.730;2023-03-24T16:23:37;16.42;;;3.92;;
51981;SDS011;37998;53.416;6.730;2023-03-24T16:26:04;14.60;;;3.55;;
51981;SDS011;37998;53.416;6.730;2023-03-24T16:28:30;13.57;;;3.30;;
51981;SDS011;37998;53.416;6.730;2023-03-24T16:31:02;13.65;;;2.95;;
51981;SDS011;37998;53.416;6.730;2023-03-24T16:33:29;11.05;;;2.97;;
51981;SDS011;37998;53.416;6.730;2023-03-24T16:35:55;16.15;;;3.22;;
51981;SDS011;37998;53.416;6.730;2023-03-24T16:38:21;12.00;;;3.08;;
51981;SDS011;37998;53.416;6.730;2023-03-24T16:40:51;13.15;;;3.00;;
51981;SDS011;37998;53.416;6.730;2023-03-24T16:43:18;14.05;;;3.00;;
51981;SDS011;37998;53.416;6.730;2023-03-24T16:45:45;18.20;;;3.40;;
51981;SDS011;37998;53.416;6.730;2023-03-24T16:48:11;10.15;;;2.75;;
51981;SDS011;37998;53.416;6.730;2023-03-24T16:50:50;11.57;;;2.70;;
51981;SDS011;37998;53.416;6.730;2023-03-24T16:53:17;14.35;;;3.83;;
51981;SDS011;37998;53.416;6.730;2023-03-24T16:55:43;12.65;;;3.03;;
51981;SDS011;37998;53.416;6.730;2023-03-24T16:58:09;12.40;;;2.67;;
51981;SDS011;37998;53.416;6.730;2023-03-24T17:00:37;15.27;;;3.08;;
51981;SDS011;37998;53.416;6.730;2023-03-24T17:03:03;11.98;;;2.97;;
51981;SDS011;37998;53.416;6.730;2023-03-24T17:05:42;12.15;;;2.65;;
51981;SDS011;37998;53.416;6.730;2023-03-24T17:08:11;12.73;;;2.40;;
51981;SDS011;37998;53.416;6.730;2023-03-24T17:10:36;12.10;;;2.72;;
51981;SDS011;37998;53.416;6.730;2023-03-24T17:13:04;14.15;;;3.58;;
51981;SDS011;37998;53.416;6.730;2023-03-24T17:15:31;13.02;;;3.35;;
51981;SDS011;37998;53.416;6.730;2023-03-24T17:17:57;14.75;;;3.17;;
51981;SDS011;37998;53.416;6.730;2023-03-24T17:20:24;12.80;;;3.65;;
51981;SDS011;37998;53.416;6.730;2023-03-24T17:22:52;18.30;;;3.13;;
51981;SDS011;37998;53.416;6.730;2023-03-24T17:25:21;14.15;;;3.47;;
51981;SDS011;37998;53.416;6.730;2023-03-24T17:27:47;13.30;;;2.78;;
51981;SDS011;37998;53.416;6.730;2023-03-24T17:30:15;13.30;;;2.83;;
51981;SDS011;37998;53.416;6.730;2023-03-24T17:32:46;13.27;;;3.30;;
51981;SDS011;37998;53.416;6.730;2023-03-24T17:35:14;13.25;;;3.25;;
51981;SDS011;37998;53.416;6.730;2023-03-24T17:37:41;12.70;;;3.33;;
51981;SDS011;37998;53.416;6.730;2023-03-24T17:40:08;20.48;;;3.38;;
51981;SDS011;37998;53.416;6.730;2023-03-24T17:42:36;15.02;;;3.33;;
51981;SDS011;37998;53.416;6.730;2023-03-24T17:45:04;17.95;;;3.63;;
51981;SDS011;37998;53.416;6.730;2023-03-24T17:47:32;13.98;;;3.72;;
51981;SDS011;37998;53.416;6.730;2023-03-24T17:49:57;15.90;;;3.25;;
51981;SDS011;37998;53.416;6.730;2023-03-24T17:52:23;19.40;;;3.95;;
51981;SDS011;37998;53.416;6.730;2023-03-24T17:54:49;18.23;;;3.85;;
51981;SDS011;37998;53.416;6.730;2023-03-24T17:57:15;15.15;;;3.25;;
51981;SDS011;37998;53.416;6.730;2023-03-24T17:59:41;10.73;;;3.00;;
51981;SDS011;37998;53.416;6.730;2023-03-24T18:02:08;19.00;;;3.53;;
51981;SDS011;37998;53.416;6.730;2023-03-24T18:04:36;13.93;;;3.22;;
51981;SDS011;37998;53.416;6.730;2023-03-24T18:07:02;17.23;;;3.78;;